Time;durP1;ratioP1;P1;durP2;ratioP2;P2;SDS_P1;SDS_P2;PMS_P1;PMS_P2;Temp;Humidity;BMP_temperature;BMP_pressure;BME280_temperature;BME280_humidity;BME280_pressure;Samples;Min_cycle;Max_cycle;Signal;HPM_P1;HPM_P2
2022/01/14 00:00:29;;;;;;;23.52;3.88;;;6.20;83.10;;;;;;4112275;28;20035;-66
2022/01/14 00:02:29;;;;;;;21.45;3.42;;;6.20;83.10;;;;;;4110530;28;20027;-66
2022/01/14 00:04:30;;;;;;;25.13;4.10;;;6.20;83.10;;;;;;4137871;28;20018;-66
2022/01/14 00:06:31;;;;;;;25.40;3.53;;;6.20;83.90;;;;;;4109615;28;20033;-66
2022/01/14 00:08:31;;;;;;;35.38;4.20;;;6.20;83.10;;;;;;4105044;28;20105;-66
2022/01/14 00:10:32;;;;;;;24.08;4.75;;;6.20;83.20;;;;;;4108837;28;20510;-66
2022/01/14 00:12:39;;;;;;;29.40;4.07;;;6.20;83.10;;;;;;4141651;28;20026;-66
2022/01/14 00:14:42;;;;;;;32.75;4.25;;;6.20;83.20;;;;;;4108274;28;20027;-66
2022/01/14 00:16:43;;;;;;;;;;;6.30;83.20;;;;;;4105485;28;20027;-66
2022/01/14 00:18:43;;;;;;;28.13;3.63;;;6.20;83.20;;;;;;4110306;28;20305;-66
2022/01/14 00:20:44;;;;;;;32.83;3.13;;;6.20;83.10;;;;;;4107089;28;20114;-66
2022/01/14 00:22:45;;;;;;;27.63;4.10;;;6.20;83.20;;;;;;4110628;28;20491;-66
2022/01/14 00:33:40;;;;;;;25.38;3.92;;;6.20;83.20;;;;;;4108197;28;20027;-67
2022/01/14 00:35:41;;;;;;;24.88;4.05;;;6.20;83.20;;;;;;4109877;28;20723;-67
2022/01/14 00:37:41;;;;;;;32.25;3.42;;;6.20;83.10;;;;;;4110447;28;20030;-67
2022/01/14 00:39:43;;;;;;;28.58;3.38;;;6.20;83.10;;;;;;4110006;28;20038;-66
2022/01/14 00:41:44;;;;;;;40.75;3.45;;;6.20;83.90;;;;;;4137816;28;20041;-66
2022/01/14 00:43:45;;;;;;;21.58;3.33;;;6.20;83.20;;;;;;4107652;28;20394;-66
2022/01/14 00:45:45;;;;;;;23.17;3.17;;;6.20;83.20;;;;;;4109408;28;20015;-66
2022/01/14 00:47:46;;;;;;;26.17;3.25;;;6.20;83.30;;;;;;4110231;28;20054;-66
2022/01/14 00:49:47;;;;;;;38.38;3.75;;;6.20;83.20;;;;;;4110483;28;20027;-67
2022/01/14 00:51:48;;;;;;;23.00;3.33;;;6.20;83.20;;;;;;4109306;28;20066;-66
2022/01/14 00:53:48;;;;;;;26.50;4.25;;;6.20;83.20;;;;;;4110417;28;20113;-66
2022/01/14 00:55:58;;;;;;;23.70;3.90;;;6.20;83.20;;;;;;4110963;28;20057;-67
2022/01/14 01:00:00;;;;;;;21.83;3.55;;;6.20;83.10;;;;;;4108968;28;20046;-66
2022/01/14 01:02:01;;;;;;;25.58;3.33;;;6.20;83.10;;;;;;4106335;28;20086;-66
2022/01/14 01:04:02;;;;;;;25.58;4.28;;;6.20;83.80;;;;;;4108799;28;20027;-66
2022/01/14 01:06:02;;;;;;;24.48;3.25;;;6.20;83.00;;;;;;4109380;28;20106;-66
2022/01/14 01:08:09;;;;;;;24.88;3.30;;;6.20;83.10;;;;;;4103902;28;20515;-66
2022/01/14 01:10:11;;;;;;;40.28;4.00;;;6.20;83.00;;;;;;4095521;28;20834;-67
2022/01/14 01:12:15;;;;;;;32.83;3.50;;;6.10;83.00;;;;;;4109445;28;21914;-67
2022/01/14 01:14:33;;;;;;;27.05;2.95;;;6.10;83.00;;;;;;4121615;28;20038;-67
2022/01/14 01:16:34;;;;;;;31.45;3.35;;;6.10;83.20;;;;;;4108696;28;20045;-66
2022/01/14 01:18:35;;;;;;;36.78;3.75;;;6.10;83.20;;;;;;4109762;28;20034;-67
2022/01/14 01:20:35;;;;;;;21.73;3.25;;;6.10;83.30;;;;;;4108867;28;20597;-66
2022/01/14 01:22:36;;;;;;;25.00;3.53;;;6.10;83.30;;;;;;4109670;28;20043;-67
2022/01/14 01:24:37;;;;;;;32.92;3.50;;;6.10;83.40;;;;;;4110067;28;20038;-67
2022/01/14 01:26:40;;;;;;;26.38;3.58;;;6.10;83.50;;;;;;4109537;28;20019;-67
2022/01/14 01:33:04;;;;;;;22.25;3.20;;;6.10;83.40;;;;;;4110203;28;20663;-67
2022/01/14 01:35:05;;;;;;;24.77;3.67;;;6.10;83.40;;;;;;4109489;28;20117;-67
2022/01/14 01:37:05;;;;;;;26.27;3.22;;;6.10;83.30;;;;;;4108527;28;20034;-67
2022/01/14 01:39:08;;;;;;;23.48;2.53;;;6.10;83.30;;;;;;4108416;28;20026;-67
2022/01/14 01:41:11;;;;;;;20.48;2.75;;;6.10;83.30;;;;;;4104313;28;20411;-67
2022/01/14 01:43:12;;;;;;;38.78;3.83;;;6.10;83.30;;;;;;4107597;28;20019;-67
2022/01/14 01:45:20;;;;;;;25.98;3.90;;;6.10;83.30;;;;;;4107505;28;20062;-67
2022/01/14 01:47:22;;;;;;;32.72;3.45;;;6.00;83.30;;;;;;4110486;28;20022;-67
2022/01/14 01:49:25;;;;;;;25.08;3.88;;;6.00;83.30;;;;;;4108969;28;20065;-67
2022/01/14 01:51:26;;;;;;;35.93;3.67;;;6.00;83.40;;;;;;4107386;28;20090;-68
2022/01/14 01:53:26;;;;;;;26.90;3.75;;;6.00;83.40;;;;;;4112387;28;20677;-67
2022/01/14 01:55:27;;;;;;;28.15;3.53;;;6.00;83.40;;;;;;4111297;28;20487;-67
2022/01/14 01:57:27;;;;;;;25.23;3.00;;;6.00;83.40;;;;;;4164056;22;20112;-80
2022/01/14 01:59:28;;;;;;;26.92;3.92;;;6.00;83.40;;;;;;4159349;28;20040;-80
2022/01/14 02:01:29;;;;;;;31.50;3.47;;;6.00;83.40;;;;;;4161751;28;20037;-81
2022/01/14 02:03:29;;;;;;;26.17;2.65;;;6.00;83.40;;;;;;4162694;28;20051;-81
2022/01/14 02:05:30;;;;;;;21.73;4.15;;;6.00;83.60;;;;;;4161825;28;20103;-80
2022/01/14 02:07:34;;;;;;;31.23;3.80;;;5.90;83.50;;;;;;4162489;28;20073;-81
2022/01/14 02:09:34;;;;;;;31.30;4.80;;;6.00;83.60;;;;;;4145438;28;20502;-80
2022/01/14 02:11:35;;;;;;;24.77;3.47;;;6.00;83.70;;;;;;4180330;28;20032;-81
2022/01/14 02:13:35;;;;;;;25.42;4.22;;;5.90;83.70;;;;;;4146163;28;20030;-81
2022/01/14 02:15:46;;;;;;;25.27;4.00;;;6.00;83.70;;;;;;4160679;28;20442;-80
2022/01/14 02:22:18;;;;;;;33.80;5.00;;;5.90;83.50;;;;;;4172616;28;20134;-81
2022/01/14 02:26:20;;;;;;;29.55;4.40;;;5.90;83.70;;;;;;4174689;28;20021;-81
2022/01/14 02:28:21;;;;;;;31.60;4.32;;;5.90;83.70;;;;;;4159917;28;20479;-81
2022/01/14 02:30:22;;;;;;;31.95;4.38;;;5.90;83.80;;;;;;4177513;28;20048;-81
2022/01/14 02:32:23;;;;;;;30.52;4.18;;;5.90;83.90;;;;;;4145557;28;20022;-81
2022/01/14 02:34:24;;;;;;;27.63;4.30;;;5.80;83.90;;;;;;4146274;28;20072;-81
2022/01/14 02:36:25;;;;;;;32.70;4.25;;;5.80;83.90;;;;;;4155111;28;20074;-82
2022/01/14 02:38:25;;;;;;;23.05;4.38;;;5.80;84.10;;;;;;4176258;28;20021;-82
2022/01/14 02:40:26;;;;;;;29.75;3.78;;;5.80;84.20;;;;;;4160319;28;20083;-82
2022/01/14 02:42:27;;;;;;;25.67;4.68;;;5.80;84.30;;;;;;4162294;28;20041;-82
2022/01/14 02:44:29;;;;;;;20.20;3.90;;;5.80;84.50;;;;;;4159350;28;20032;-81
2022/01/14 02:46:36;;;;;;;29.67;3.78;;;5.80;84.50;;;;;;4145830;28;20038;-81
2022/01/14 02:48:37;;;;;;;26.25;3.47;;;5.80;84.60;;;;;;4161322;28;20030;-81
2022/01/14 02:50:41;;;;;;;26.17;3.63;;;5.70;84.60;;;;;;4161872;28;20032;-81
2022/01/14 02:52:55;;;;;;;27.33;3.47;;;5.70;84.70;;;;;;4162615;28;20033;-81
2022/01/14 02:55:13;;;;;;;;;;;5.80;84.90;;;;;;4163303;28;20052;-81
2022/01/14 02:57:14;;;;;;;19.88;3.13;;;5.80;84.90;;;;;;4160731;28;20452;-81
2022/01/14 02:59:15;;;;;;;33.08;3.47;;;5.70;84.90;;;;;;4161681;28;20037;-81
2022/01/14 03:01:19;;;;;;;21.23;2.92;;;5.70;85.10;;;;;;4163813;28;20033;-81
2022/01/14 03:03:23;;;;;;;26.15;3.78;;;5.70;85.10;;;;;;4164967;28;20110;-81
2022/01/14 03:05:23;;;;;;;24.70;3.70;;;5.80;85.40;;;;;;4149094;28;20030;-81
2022/01/14 03:07:24;;;;;;;27.80;4.40;;;5.70;85.40;;;;;;4158887;28;20026;-81
2022/01/14 03:09:25;;;;;;;38.65;4.03;;;5.70;85.40;;;;;;4143658;28;20033;-81
2022/01/14 03:11:55;;;;;;;20.58;3.63;;;5.70;85.70;;;;;;4178405;28;20017;-81
2022/01/14 03:13:56;;;;;;;16.98;3.78;;;5.70;85.90;;;;;;4153413;28;20159;-81
2022/01/14 03:15:57;;;;;;;23.65;3.22;;;5.70;86.00;;;;;;4160130;28;20041;-80
2022/01/14 03:17:58;;;;;;;25.63;4.57;;;5.70;86.20;;;;;;4159233;28;20541;-81
2022/01/14 03:20:00;;;;;;;20.42;2.78;;;5.70;86.30;;;;;;4159046;28;20029;-80
2022/01/14 03:22:18;;;;;;;23.80;3.60;;;5.70;86.30;;;;;;4163293;28;20484;-81
2022/01/14 03:24:22;;;;;;;25.98;3.03;;;5.60;86.50;;;;;;4168427;28;20276;-81
2022/01/14 03:26:23;;;;;;;18.98;3.25;;;5.60;86.70;;;;;;4127853;28;20179;-81
2022/01/14 03:28:24;;;;;;;30.10;5.15;;;5.60;86.70;;;;;;4176845;28;20025;-80
2022/01/14 03:30:24;;;;;;;27.90;3.15;;;5.60;86.90;;;;;;4159855;28;20064;-80
2022/01/14 03:32:25;;;;;;;23.35;2.95;;;5.60;87.10;;;;;;4162197;28;20088;-80
2022/01/14 03:34:25;;;;;;;27.55;4.00;;;5.60;87.20;;;;;;4160500;28;20505;-80
2022/01/14 03:36:26;;;;;;;23.63;3.28;;;5.60;87.30;;;;;;4144428;28;20037;-80
2022/01/14 03:38:26;;;;;;;19.90;3.10;;;5.60;87.30;;;;;;4126541;28;20495;-80
2022/01/14 03:40:27;;;;;;;34.42;3.30;;;5.60;87.50;;;;;;4161274;28;20080;-81
2022/01/14 03:42:28;;;;;;;25.45;3.08;;;5.60;88.20;;;;;;4173569;28;20067;-80
2022/01/14 03:44:29;;;;;;;26.55;3.65;;;5.60;87.50;;;;;;4162993;28;20035;-80
2022/01/14 03:46:29;;;;;;;30.35;3.25;;;5.60;87.60;;;;;;4161424;28;20028;-80
2022/01/14 03:48:30;;;;;;;23.48;4.22;;;5.60;87.60;;;;;;4160093;28;20040;-80
2022/01/14 03:50:30;;;;;;;30.40;3.15;;;5.60;87.60;;;;;;4176774;28;20090;-80
2022/01/14 03:52:32;;;;;;;29.25;4.78;;;5.60;87.60;;;;;;4162576;28;20018;-80
2022/01/14 03:54:32;;;;;;;23.52;3.42;;;5.60;87.50;;;;;;4176659;28;20025;-81
2022/01/14 03:56:33;;;;;;;21.65;3.45;;;5.60;87.50;;;;;;4158946;28;20079;-80
2022/01/14 03:58:33;;;;;;;31.65;3.75;;;5.70;87.60;;;;;;4160826;28;20037;-80
2022/01/14 04:00:34;;;;;;;27.90;3.42;;;5.70;87.60;;;;;;4161577;28;20517;-79
2022/01/14 04:02:35;;;;;;;20.17;3.05;;;5.70;87.50;;;;;;4161469;28;20048;-80
2022/01/14 04:04:36;;;;;;;40.42;3.92;;;5.70;87.50;;;;;;4144309;28;20022;-81
2022/01/14 04:06:36;;;;;;;26.75;3.25;;;5.70;87.50;;;;;;4159471;28;20029;-81
2022/01/14 04:08:37;;;;;;;37.10;3.88;;;5.70;87.40;;;;;;4147404;28;20050;-81
2022/01/14 04:10:38;;;;;;;34.20;3.38;;;5.70;87.30;;;;;;4143530;28;20048;-81
2022/01/14 04:12:59;;;;;;;25.92;4.35;;;5.70;87.40;;;;;;4129003;28;20026;-81
2022/01/14 04:17:00;;;;;;;19.65;2.65;;;5.80;87.40;;;;;;4161989;28;20025;-81
2022/01/14 04:19:00;;;;;;;29.27;4.13;;;5.80;87.20;;;;;;4175250;28;20060;-81
2022/01/14 04:21:01;;;;;;;33.60;4.65;;;5.80;87.30;;;;;;4161189;28;20032;-81
2022/01/14 04:23:02;;;;;;;26.08;3.38;;;5.80;87.10;;;;;;4159128;28;20499;-81
2022/01/14 04:25:03;;;;;;;30.95;3.50;;;5.80;87.20;;;;;;4160088;28;20037;-81
2022/01/14 04:27:04;;;;;;;31.73;3.30;;;5.80;87.20;;;;;;4144315;28;20048;-81
2022/01/14 04:29:04;;;;;;;26.98;3.40;;;5.80;87.20;;;;;;4163283;28;20033;-80
2022/01/14 04:31:06;;;;;;;28.35;3.47;;;5.80;87.20;;;;;;4162315;28;20121;-78
2022/01/14 04:33:07;;;;;;;41.20;5.28;;;5.80;87.20;;;;;;4161298;28;20025;-78
2022/01/14 04:35:08;;;;;;;28.35;4.20;;;5.80;87.10;;;;;;4176074;28;20036;-79
2022/01/14 04:37:08;;;;;;;32.58;4.28;;;5.80;87.30;;;;;;4158367;28;20475;-79
2022/01/14 04:39:10;;;;;;;45.80;5.05;;;5.80;87.20;;;;;;4160156;28;20038;-80
2022/01/14 04:41:10;;;;;;;28.52;3.95;;;5.90;87.10;;;;;;4143737;28;20018;-79
2022/01/14 04:43:13;;;;;;;26.95;3.88;;;5.80;87.10;;;;;;4160243;28;20036;-79
2022/01/14 04:45:27;;;;;;;26.83;3.67;;;5.90;87.00;;;;;;4141998;28;20021;-79
2022/01/14 04:47:44;;;;;;;36.10;4.32;;;5.90;86.90;;;;;;4143239;28;20037;-78
2022/01/14 04:49:45;;;;;;;34.30;6.07;;;5.90;86.80;;;;;;4174890;28;20029;-79
2022/01/14 04:51:45;;;;;;;40.95;4.97;;;5.90;86.70;;;;;;4160874;28;20394;-79
2022/01/14 04:53:46;;;;;;;30.00;4.22;;;5.90;86.70;;;;;;4124513;28;20041;-79
2022/01/14 04:55:47;;;;;;;36.35;4.85;;;5.90;86.70;;;;;;4142393;28;21654;-79
2022/01/14 04:57:47;;;;;;;25.52;3.60;;;5.90;86.60;;;;;;4161656;28;20398;-79
2022/01/14 04:59:49;;;;;;;33.20;3.40;;;6.00;86.70;;;;;;4143498;28;21409;-79
2022/01/14 05:01:50;;;;;;;29.75;4.32;;;6.00;86.60;;;;;;4141237;28;20110;-79
2022/01/14 05:03:50;;;;;;;29.23;3.63;;;6.00;86.50;;;;;;4158211;28;20403;-79
2022/01/14 05:05:55;;;;;;;27.88;3.85;;;6.00;86.50;;;;;;4152003;28;20033;-79
2022/01/14 05:07:55;;;;;;;23.33;3.30;;;6.00;86.30;;;;;;4158215;28;20026;-79
2022/01/14 05:12:09;;;;;;;33.28;3.20;;;6.10;86.30;;;;;;4162476;28;20033;-79
2022/01/14 05:14:10;;;;;;;27.40;3.13;;;6.10;86.10;;;;;;4165030;28;20134;-79
2022/01/14 05:16:10;;;;;;;33.92;3.70;;;6.10;86.00;;;;;;4141393;28;20030;-79
2022/01/14 05:18:11;;;;;;;25.17;3.83;;;6.10;86.00;;;;;;4159378;28;20044;-79
2022/01/14 05:20:14;;;;;;;32.40;3.70;;;6.20;86.10;;;;;;4159173;28;20032;-79
2022/01/14 05:22:15;;;;;;;38.33;4.78;;;6.20;85.80;;;;;;4144010;28;20099;-79
2022/01/14 05:24:16;;;;;;;32.10;3.58;;;6.20;85.80;;;;;;4164819;28;20427;-78
2022/01/14 05:26:16;;;;;;;24.13;3.08;;;6.20;85.70;;;;;;4158260;28;20025;-79
2022/01/14 05:28:17;;;;;;;23.33;3.67;;;6.20;85.50;;;;;;4156504;28;20037;-80
2022/01/14 05:30:18;;;;;;;27.15;3.88;;;6.30;85.50;;;;;;4153469;28;20041;-81
2022/01/14 05:32:20;;;;;;;30.02;2.95;;;6.20;85.20;;;;;;4158647;28;20037;-80
2022/01/14 05:34:21;;;;;;;24.75;3.53;;;6.30;85.10;;;;;;4158209;28;20109;-80
2022/01/14 05:36:21;;;;;;;28.75;3.97;;;6.30;85.10;;;;;;4155915;28;20057;-80
2022/01/14 05:38:22;;;;;;;26.30;3.28;;;6.40;85.10;;;;;;4163977;22;20046;-62
2022/01/14 05:40:25;;;;;;;37.45;3.58;;;6.40;85.00;;;;;;4136520;28;20091;-62
2022/01/14 05:42:26;;;;;;;;;;;6.40;84.90;;;;;;4139900;28;20379;-62
2022/01/14 05:44:27;;;;;;;30.50;3.53;;;6.40;84.90;;;;;;4123218;28;19917;-62
2022/01/14 05:46:28;;;;;;;25.58;3.80;;;6.40;84.70;;;;;;4121701;28;20496;-62
2022/01/14 05:48:29;;;;;;;28.90;3.50;;;6.50;84.60;;;;;;4140230;28;20044;-62
2022/01/14 05:50:29;;;;;;;27.35;3.10;;;6.50;84.60;;;;;;4142306;28;20557;-62
2022/01/14 05:52:30;;;;;;;30.60;3.88;;;6.50;84.60;;;;;;4142105;28;20028;-62
2022/01/14 05:54:30;;;;;;;32.42;3.40;;;6.50;84.40;;;;;;4138008;28;20029;-62
2022/01/14 05:56:31;;;;;;;24.55;4.38;;;6.50;84.20;;;;;;4140906;28;20030;-62
2022/01/14 05:58:31;;;;;;;26.45;3.95;;;6.60;84.30;;;;;;4142406;28;20151;-62
2022/01/14 06:00:32;;;;;;;47.67;5.07;;;6.60;84.10;;;;;;4141628;28;20030;-62
2022/01/14 06:02:33;;;;;;;31.33;4.07;;;6.60;84.20;;;;;;4138295;28;20568;-62
2022/01/14 06:04:33;;;;;;;34.17;3.97;;;6.60;84.10;;;;;;4142260;28;20026;-62
2022/01/14 06:06:34;;;;;;;36.58;4.60;;;6.60;84.80;;;;;;4135519;28;20115;-62
2022/01/14 06:08:35;;;;;;;21.23;2.80;;;6.60;84.00;;;;;;4140628;28;20481;-62
2022/01/14 06:10:35;;;;;;;33.65;4.55;;;6.70;84.20;;;;;;4137104;28;20061;-62
2022/01/14 06:12:36;;;;;;;29.05;4.05;;;6.70;84.00;;;;;;4140651;28;20045;-62
2022/01/14 06:14:37;;;;;;;28.15;4.13;;;6.70;84.00;;;;;;4142582;28;20037;-62
2022/01/14 06:16:37;;;;;;;40.75;6.20;;;6.70;84.00;;;;;;4143101;28;21985;-62
2022/01/14 06:18:38;;;;;;;27.77;3.28;;;6.70;84.10;;;;;;4143126;28;20022;-62
2022/01/14 06:20:38;;;;;;;25.08;3.63;;;6.70;84.00;;;;;;4137333;28;20540;-62
2022/01/14 06:22:39;;;;;;;25.38;3.05;;;6.70;84.10;;;;;;4142496;28;20559;-62
2022/01/14 06:24:40;;;;;;;41.50;5.70;;;6.70;84.20;;;;;;4143143;28;20102;-62
2022/01/14 06:26:40;;;;;;;40.92;4.28;;;6.70;84.20;;;;;;4143410;28;20478;-62
2022/01/14 06:28:42;;;;;;;39.45;6.22;;;6.70;84.20;;;;;;4140748;28;20029;-62
2022/01/14 06:30:43;;;;;;;32.97;3.80;;;6.70;84.10;;;;;;4140982;28;21232;-62
2022/01/14 06:32:43;;;;;;;30.63;3.47;;;6.70;84.10;;;;;;4140073;28;20030;-62
2022/01/14 06:34:44;;;;;;;29.92;3.80;;;6.80;84.00;;;;;;4144776;28;20042;-62
2022/01/14 06:36:44;;;;;;;39.70;4.25;;;6.80;83.80;;;;;;4139798;28;20113;-62
2022/01/14 06:38:45;;;;;;;29.63;5.22;;;6.70;83.80;;;;;;4126132;28;20429;-62
2022/01/14 06:40:49;;;;;;;38.97;4.95;;;6.70;84.00;;;;;;4144178;28;20033;-62
2022/01/14 06:42:50;;;;;;;40.42;4.45;;;6.80;84.10;;;;;;4145212;28;20033;-62
2022/01/14 06:44:51;;;;;;;34.72;4.43;;;6.80;84.10;;;;;;4144967;28;20042;-64
2022/01/14 06:46:51;;;;;;;29.38;4.93;;;6.80;84.10;;;;;;4144321;28;20072;-62
2022/01/14 06:48:52;;;;;;;30.13;3.95;;;6.80;84.20;;;;;;4136157;28;20038;-62
2022/01/14 06:50:52;;;;;;;21.67;3.85;;;6.80;84.40;;;;;;4131236;28;20572;-62
2022/01/14 06:52:53;;;;;;;26.85;3.40;;;6.80;84.40;;;;;;4141628;28;20087;-62
2022/01/14 06:54:53;;;;;;;33.35;3.80;;;6.80;84.60;;;;;;4145878;28;20490;-62
2022/01/14 06:56:54;;;;;;;26.90;3.53;;;6.80;84.60;;;;;;4146955;28;20030;-62
2022/01/14 06:58:55;;;;;;;33.63;4.63;;;6.80;84.70;;;;;;4140447;28;20038;-62
2022/01/14 07:00:55;;;;;;;37.33;4.22;;;6.80;84.90;;;;;;4139323;28;20029;-62
2022/01/14 07:02:56;;;;;;;32.38;3.53;;;6.70;85.00;;;;;;4145556;28;20030;-62
2022/01/14 07:04:56;;;;;;;36.20;4.15;;;6.70;85.10;;;;;;4145643;28;20042;-62
2022/01/14 07:06:57;;;;;;;25.23;4.15;;;6.70;85.10;;;;;;4144953;28;20452;-62
2022/01/14 07:08:58;;;;;;;29.50;3.78;;;6.70;85.40;;;;;;4143934;28;20291;-62
2022/01/14 07:10:58;;;;;;;31.85;3.78;;;6.70;85.50;;;;;;4145987;28;20042;-62
2022/01/14 07:12:59;;;;;;;30.38;3.42;;;6.70;85.60;;;;;;4127704;28;20576;-62
2022/01/14 07:15:00;;;;;;;35.38;3.63;;;6.70;85.70;;;;;;4144049;28;20042;-62
2022/01/14 07:17:00;;;;;;;34.42;3.85;;;6.70;85.80;;;;;;4146029;28;20029;-62
2022/01/14 07:19:02;;;;;;;26.95;3.88;;;6.70;85.90;;;;;;4144889;28;20030;-62
2022/01/14 07:21:03;;;;;;;22.75;2.80;;;6.70;86.00;;;;;;4145134;28;20516;-62
2022/01/14 07:23:04;;;;;;;21.80;2.72;;;6.70;86.20;;;;;;4144294;28;20022;-62
2022/01/14 07:25:04;;;;;;;25.13;3.42;;;6.70;86.40;;;;;;4143433;28;20099;-62
2022/01/14 07:27:05;;;;;;;31.52;3.25;;;6.70;86.60;;;;;;4145649;28;20045;-62
2022/01/14 07:29:06;;;;;;;31.33;4.28;;;6.70;86.80;;;;;;4144568;28;20030;-62
2022/01/14 07:31:06;;;;;;;31.25;3.58;;;6.70;86.90;;;;;;4143100;28;20041;-62
2022/01/14 07:33:07;;;;;;;30.70;4.15;;;6.70;86.90;;;;;;4145345;28;20018;-62
2022/01/14 07:35:08;;;;;;;31.02;3.65;;;6.70;86.90;;;;;;4143006;28;20482;-62
2022/01/14 07:37:09;;;;;;;30.27;3.10;;;6.70;86.90;;;;;;4133781;28;20034;-62
2022/01/14 07:39:09;;;;;;;29.75;3.45;;;6.80;87.00;;;;;;4138389;28;20036;-62
2022/01/14 07:41:10;;;;;;;31.15;3.50;;;6.70;87.20;;;;;;4145109;28;20034;-62
2022/01/14 07:43:11;;;;;;;29.38;3.80;;;6.70;87.10;;;;;;4145176;28;20164;-62
2022/01/14 07:45:11;;;;;;;29.98;3.92;;;6.70;87.20;;;;;;4142154;28;20038;-62
2022/01/14 07:47:12;;;;;;;29.13;4.13;;;6.70;87.60;;;;;;4124945;28;20027;-62
2022/01/14 07:49:13;;;;;;;29.00;3.33;;;6.70;87.60;;;;;;4144113;28;20025;-62
2022/01/14 07:51:13;;;;;;;36.03;4.38;;;6.80;87.60;;;;;;4144979;28;20045;-62
2022/01/14 07:53:14;;;;;;;37.83;4.22;;;6.80;87.60;;;;;;4144742;28;20029;-62
2022/01/14 07:55:14;;;;;;;38.60;3.65;;;6.80;87.50;;;;;;4127054;28;20621;-62
2022/01/14 07:57:15;;;;;;;34.20;3.53;;;6.80;87.50;;;;;;4158508;22;20038;-64
2022/01/14 07:59:17;;;;;;;21.63;3.92;;;6.80;87.50;;;;;;4144656;28;20037;-64
2022/01/14 08:01:18;;;;;;;28.98;3.03;;;6.80;87.40;;;;;;4112486;28;20022;-64
2022/01/14 08:03:18;;;;;;;27.33;4.03;;;6.90;87.50;;;;;;4147787;28;20096;-65
2022/01/14 08:05:19;;;;;;;38.75;3.67;;;6.90;87.50;;;;;;4143988;28;20033;-64
2022/01/14 08:07:22;;;;;;;24.63;3.15;;;6.90;87.50;;;;;;4129925;28;20030;-64
2022/01/14 08:09:23;;;;;;;12.43;2.30;;;6.80;87.40;;;;;;4146006;28;20036;-64
2022/01/14 08:11:24;;;;;;;18.20;3.10;;;6.90;87.50;;;;;;4145153;28;20084;-64
2022/01/14 08:13:25;;;;;;;27.77;3.38;;;6.90;87.60;;;;;;4143539;28;20496;-65
2022/01/14 08:15:25;;;;;;;32.60;4.65;;;6.90;87.60;;;;;;4145917;28;20374;-63
2022/01/14 08:17:26;;;;;;;32.22;3.22;;;6.90;87.50;;;;;;4148788;28;20383;-63
2022/01/14 08:19:32;;;;;;;26.00;3.15;;;6.90;87.60;;;;;;4148649;28;20494;-64
2022/01/14 08:21:33;;;;;;;15.15;2.40;;;6.90;87.60;;;;;;4145152;28;20026;-64
2022/01/14 08:23:33;;;;;;;30.67;2.95;;;6.90;87.50;;;;;;4146534;28;20034;-64
2022/01/14 08:25:34;;;;;;;22.30;2.83;;;7.00;87.70;;;;;;4146029;28;20029;-64
2022/01/14 08:27:35;;;;;;;26.92;2.63;;;6.90;87.50;;;;;;4145864;28;20507;-64
2022/01/14 08:29:36;;;;;;;23.92;3.05;;;7.00;87.40;;;;;;4146313;28;20037;-64
2022/01/14 08:31:36;;;;;;;34.67;3.45;;;7.00;87.50;;;;;;4149191;28;20266;-64
2022/01/14 08:33:37;;;;;;;22.80;2.65;;;7.00;87.60;;;;;;4137716;28;20481;-63
2022/01/14 08:35:38;;;;;;;17.15;2.40;;;7.00;87.50;;;;;;4143836;28;20034;-64
2022/01/14 08:37:39;;;;;;;25.15;2.20;;;7.00;87.70;;;;;;4142923;28;20097;-64
2022/01/14 08:39:39;;;;;;;31.52;2.78;;;7.00;87.70;;;;;;4138159;28;20108;-66
2022/01/14 08:41:40;;;;;;;20.73;2.47;;;7.00;87.80;;;;;;4143282;28;20034;-64
2022/01/14 08:43:41;;;;;;;22.67;2.88;;;7.00;87.80;;;;;;4144332;28;20454;-64
2022/01/14 08:45:41;;;;;;;17.58;1.88;;;7.00;87.90;;;;;;4144224;28;20481;-64
2022/01/14 08:47:42;;;;;;;11.95;1.80;;;7.00;88.00;;;;;;4143876;28;20068;-63
2022/01/14 08:49:43;;;;;;;19.52;2.28;;;7.00;87.90;;;;;;4143432;28;20060;-64
2022/01/14 08:51:44;;;;;;;17.38;1.98;;;7.00;88.00;;;;;;4144246;28;20084;-65
2022/01/14 08:53:44;;;;;;;10.05;1.75;;;7.00;87.90;;;;;;4126167;28;20055;-63
2022/01/14 08:55:45;;;;;;;12.05;2.05;;;6.90;87.70;;;;;;4140349;28;20041;-64
2022/01/14 08:57:46;;;;;;;14.38;2.13;;;7.00;88.00;;;;;;4132272;28;21382;-63
2022/01/14 08:59:46;;;;;;;13.60;1.30;;;7.00;88.00;;;;;;4124471;28;20143;-63
2022/01/14 09:01:47;;;;;;;12.95;1.65;;;6.90;88.50;;;;;;4138013;28;20138;-63
2022/01/14 09:03:48;;;;;;;9.82;2.00;;;7.00;88.10;;;;;;4145679;28;20041;-63
2022/01/14 09:05:48;;;;;;;6.47;1.02;;;7.00;88.00;;;;;;4144916;28;20250;-63
2022/01/14 09:07:49;;;;;;;12.52;1.65;;;7.00;88.00;;;;;;4144513;28;20708;-63
2022/01/14 09:09:51;;;;;;;17.35;2.28;;;6.90;87.80;;;;;;4143860;28;20462;-62
2022/01/14 09:11:52;;;;;;;12.10;2.13;;;7.00;87.90;;;;;;4142470;28;20449;-63
2022/01/14 09:13:53;;;;;;;13.68;2.28;;;7.00;87.80;;;;;;4147261;28;20037;-64
2022/01/14 09:15:53;;;;;;;11.30;1.80;;;7.00;87.90;;;;;;4147258;28;20532;-63
2022/01/14 09:17:54;;;;;;;11.88;1.77;;;7.00;87.80;;;;;;4143465;28;20022;-64
2022/01/14 09:19:56;;;;;;;11.45;1.30;;;7.00;87.80;;;;;;4146079;28;20248;-63
2022/01/14 09:21:56;;;;;;;13.02;1.50;;;7.00;87.80;;;;;;4121061;28;20046;-64
2022/01/14 09:24:03;;;;;;;13.50;1.25;;;7.00;87.80;;;;;;4148083;28;20131;-63
2022/01/14 09:26:04;;;;;;;10.70;1.20;;;7.00;87.90;;;;;;4142408;28;20481;-63
2022/01/14 09:28:05;;;;;;;17.52;1.30;;;7.00;87.80;;;;;;4144777;28;20111;-63
2022/01/14 09:30:06;;;;;;;10.15;2.00;;;7.00;87.90;;;;;;4127786;28;20038;-64
2022/01/14 09:32:07;;;;;;;12.45;1.05;;;7.00;88.00;;;;;;4137297;28;20237;-63
2022/01/14 09:34:07;;;;;;;14.50;1.73;;;7.00;88.00;;;;;;4143997;28;20041;-64
2022/01/14 09:36:08;;;;;;;10.60;1.70;;;7.00;88.20;;;;;;4140691;28;20034;-63
2022/01/14 09:38:08;;;;;;;14.20;1.70;;;7.10;88.10;;;;;;4142804;28;20040;-64
2022/01/14 09:40:09;;;;;;;10.52;1.42;;;7.10;88.00;;;;;;4146970;28;20113;-64
2022/01/14 09:42:11;;;;;;;10.63;1.30;;;7.10;87.90;;;;;;4144715;28;20123;-62
2022/01/14 09:44:14;;;;;;;16.73;2.20;;;7.10;87.90;;;;;;4138581;28;20018;-63
2022/01/14 09:46:15;;;;;;;;;;;7.10;87.70;;;;;;4142964;28;20473;-66
2022/01/14 09:48:16;;;;;;;7.82;1.10;;;7.10;88.50;;;;;;4138191;28;19909;-65
2022/01/14 09:50:17;;;;;;;8.98;1.58;;;7.20;87.60;;;;;;4146134;28;20029;-65
2022/01/14 09:52:18;;;;;;;8.23;1.25;;;7.20;87.20;;;;;;4143725;28;20036;-65
2022/01/14 09:54:18;;;;;;;10.27;1.52;;;7.20;87.20;;;;;;4143008;28;20049;-65
2022/01/14 09:56:21;;;;;;;7.60;1.35;;;7.20;87.30;;;;;;4127919;28;20030;-65
2022/01/14 09:58:26;;;;;;;12.45;1.65;;;7.30;87.40;;;;;;4120367;28;20568;-65
2022/01/14 10:00:26;;;;;;;12.90;1.40;;;7.30;87.30;;;;;;4145909;28;20025;-65
2022/01/14 10:02:28;;;;;;;7.65;1.83;;;7.30;87.30;;;;;;4133725;28;20186;-65
2022/01/14 10:04:29;;;;;;;11.00;1.38;;;7.40;87.30;;;;;;4142059;28;20021;-66
2022/01/14 10:06:36;;;;;;;9.27;1.05;;;7.40;87.00;;;;;;4142406;28;20616;-65
2022/01/14 10:08:37;;;;;;;6.30;1.30;;;7.40;86.80;;;;;;4149167;28;20429;-65
2022/01/14 10:10:42;;;;;;;12.65;1.20;;;7.50;86.60;;;;;;4147218;28;20120;-65
2022/01/14 10:12:42;;;;;;;11.20;1.23;;;7.50;86.50;;;;;;4127729;28;20103;-66
2022/01/14 10:14:55;;;;;;;8.30;0.85;;;7.50;86.20;;;;;;4148250;28;20037;-66
2022/01/14 10:16:57;;;;;;;7.77;1.40;;;7.50;85.70;;;;;;4146405;28;20056;-65
2022/01/14 10:18:58;;;;;;;7.22;1.15;;;7.50;85.50;;;;;;4144739;28;20022;-65
2022/01/14 10:21:02;;;;;;;15.57;1.40;;;7.60;85.40;;;;;;4147661;28;20036;-65
2022/01/14 10:23:03;;;;;;;10.98;1.30;;;7.60;85.30;;;;;;4149745;28;20129;-65
2022/01/14 10:25:06;;;;;;;12.07;1.27;;;7.60;85.20;;;;;;4128649;28;20498;-65
2022/01/14 10:27:06;;;;;;;11.13;1.47;;;7.60;84.80;;;;;;4147505;28;20087;-65
2022/01/14 10:29:07;;;;;;;8.75;1.30;;;7.50;84.60;;;;;;4145722;28;20345;-65
2022/01/14 10:31:07;;;;;;;8.43;1.40;;;7.50;84.80;;;;;;4145765;28;20090;-65
2022/01/14 10:33:08;;;;;;;8.00;1.10;;;7.50;85.10;;;;;;4151113;28;20033;-65
2022/01/14 10:35:14;;;;;;;8.23;0.77;;;7.60;85.10;;;;;;4147675;28;20088;-65
2022/01/14 10:37:16;;;;;;;8.15;0.60;;;7.60;84.80;;;;;;4145258;28;20025;-65
2022/01/14 10:39:24;;;;;;;2.35;0.55;;;7.60;84.00;;;;;;4143755;28;20080;-66
2022/01/14 10:41:28;;;;;;;6.65;0.60;;;7.60;84.10;;;;;;4150430;28;20053;-65
2022/01/14 10:43:33;;;;;;;5.90;0.77;;;7.60;82.40;;;;;;4148297;28;20121;-65
2022/01/14 10:45:34;;;;;;;4.28;0.60;;;7.60;81.00;;;;;;4144921;28;20025;-65
2022/01/14 10:47:35;;;;;;;4.13;0.63;;;7.60;81.30;;;;;;4144564;28;20478;-65
2022/01/14 10:49:37;;;;;;;2.35;0.60;;;7.60;79.60;;;;;;4126921;28;20034;-65
2022/01/14 10:51:38;;;;;;;3.13;0.77;;;7.60;79.50;;;;;;4147301;28;20408;-65
2022/01/14 10:53:50;;;;;;;12.07;0.90;;;7.60;79.20;;;;;;4145801;28;20105;-65
2022/01/14 10:56:01;;;;;;;11.82;1.05;;;7.50;78.70;;;;;;4143862;28;20097;-65
2022/01/14 10:58:03;;;;;;;5.40;0.85;;;7.50;79.10;;;;;;4129641;28;20034;-65
2022/01/14 11:00:19;;;;;;;14.80;0.85;;;7.50;78.60;;;;;;4145558;28;20486;-65